sensor_id;sensor_type;location;lat;lon;timestamp;pressure;altitude;pressure_sealevel;temperature;humidity
36138;BME280;22194;50.046;21.954;2022-10-20T00:00:04;99868.43;;;5.05;69.67
36138;BME280;22194;50.046;21.954;2022-10-20T00:02:52;99872.21;;;5.03;69.84
36138;BME280;22194;50.046;21.954;2022-10-20T00:05:20;99868.30;;;4.99;69.75
36138;BME280;22194;50.046;21.954;2022-10-20T00:07:51;99875.02;;;4.98;69.75
36138;BME280;22194;50.046;21.954;2022-10-20T00:10:21;99875.95;;;4.97;69.75
36138;BME280;22194;50.046;21.954;2022-10-20T00:12:49;99877.96;;;4.95;69.72
36138;BME280;22194;50.046;21.954;2022-10-20T00:15:17;99881.98;;;4.90;69.84
36138;BME280;22194;50.046;21.954;2022-10-20T00:17:48;99886.52;;;4.87;69.79
36138;BME280;22194;50.046;21.954;2022-10-20T00:20:16;99886.77;;;4.85;69.86
36138;BME280;22194;50.046;21.954;2022-10-20T00:22:46;99887.19;;;4.83;69.89
36138;BME280;22194;50.046;21.954;2022-10-20T00:25:14;99889.93;;;4.80;69.84
36138;BME280;22194;50.046;21.954;2022-10-20T00:27:42;99891.28;;;4.76;69.83
36138;BME280;22194;50.046;21.954;2022-10-20T00:30:10;99899.67;;;4.72;69.77
36138;BME280;22194;50.046;21.954;2022-10-20T00:32:38;99905.58;;;4.69;69.90
36138;BME280;22194;50.046;21.954;2022-10-20T00:35:06;99903.92;;;4.67;69.77
36138;BME280;22194;50.046;21.954;2022-10-20T00:37:34;99905.47;;;4.62;69.75
36138;BME280;22194;50.046;21.954;2022-10-20T00:40:02;99908.90;;;4.59;69.96
36138;BME280;22194;50.046;21.954;2022-10-20T00:42:33;99906.44;;;4.55;69.90
36138;BME280;22194;50.046;21.954;2022-10-20T00:45:01;99909.30;;;4.53;69.95
36138;BME280;22194;50.046;21.954;2022-10-20T00:47:47;99908.52;;;4.50;69.82
36138;BME280;22194;50.046;21.954;2022-10-20T00:50:25;99906.73;;;4.45;69.88
36138;BME280;22194;50.046;21.954;2022-10-20T00:53:00;99907.09;;;4.40;69.89
36138;BME280;22194;50.046;21.954;2022-10-20T00:55:30;99905.90;;;4.39;70.10
36138;BME280;22194;50.046;21.954;2022-10-20T00:58:05;99903.50;;;4.38;70.01
36138;BME280;22194;50.046;21.954;2022-10-20T01:00:33;99901.62;;;4.36;70.24
36138;BME280;22194;50.046;21.954;2022-10-20T01:03:05;99897.84;;;4.33;70.03
36138;BME280;22194;50.046;21.954;2022-10-20T01:05:34;99897.60;;;4.29;70.04
36138;BME280;22194;50.046;21.954;2022-10-20T01:08:02;99905.42;;;4.27;70.09
36138;BME280;22194;50.046;21.954;2022-10-20T01:10:57;99902.30;;;4.26;70.02
36138;BME280;22194;50.046;21.954;2022-10-20T01:20:24;99902.33;;;4.20;70.12
36138;BME280;22194;50.046;21.954;2022-10-20T01:31:33;99908.42;;;4.15;70.16
36138;BME280;22194;50.046;21.954;2022-10-20T01:34:12;99910.61;;;4.13;70.17
36138;BME280;22194;50.046;21.954;2022-10-20T01:36:59;99908.55;;;4.12;70.08
36138;BME280;22194;50.046;21.954;2022-10-20T01:40:01;99905.42;;;4.11;70.27
36138;BME280;22194;50.046;21.954;2022-10-20T01:42:37;99909.05;;;4.07;70.39
36138;BME280;22194;50.046;21.954;2022-10-20T01:45:11;99909.31;;;4.05;70.32
36138;BME280;22194;50.046;21.954;2022-10-20T01:47:44;99912.85;;;4.04;70.34
36138;BME280;22194;50.046;21.954;2022-10-20T01:50:16;99910.25;;;4.03;70.50
36138;BME280;22194;50.046;21.954;2022-10-20T01:52:46;99909.59;;;4.01;70.36
36138;BME280;22194;50.046;21.954;2022-10-20T01:55:18;99912.79;;;4.00;70.54
36138;BME280;22194;50.046;21.954;2022-10-20T02:00:48;99909.65;;;3.99;70.58
36138;BME280;22194;50.046;21.954;2022-10-20T02:08:51;99902.77;;;3.95;70.68
36138;BME280;22194;50.046;21.954;2022-10-20T02:14:24;99904.80;;;3.92;70.52
36138;BME280;22194;50.046;21.954;2022-10-20T02:17:01;99900.63;;;3.91;70.86
36138;BME280;22194;50.046;21.954;2022-10-20T02:19:39;99902.55;;;3.91;70.59
36138;BME280;22194;50.046;21.954;2022-10-20T02:22:13;99903.22;;;3.92;70.55
36138;BME280;22194;50.046;21.954;2022-10-20T02:24:46;99907.08;;;3.92;70.63
36138;BME280;22194;50.046;21.954;2022-10-20T02:27:19;99905.02;;;3.90;70.67
36138;BME280;22194;50.046;21.954;2022-10-20T02:30:00;99904.34;;;3.89;70.56
36138;BME280;22194;50.046;21.954;2022-10-20T02:32:39;99907.38;;;3.88;70.57
36138;BME280;22194;50.046;21.954;2022-10-20T02:35:13;99907.61;;;3.86;70.62
36138;BME280;22194;50.046;21.954;2022-10-20T02:37:44;99909.54;;;3.86;70.58
36138;BME280;22194;50.046;21.954;2022-10-20T02:40:11;99911.64;;;3.86;70.79
36138;BME280;22194;50.046;21.954;2022-10-20T02:42:41;99914.13;;;3.85;70.80
36138;BME280;22194;50.046;21.954;2022-10-20T02:45:12;99909.97;;;3.84;70.66
36138;BME280;22194;50.046;21.954;2022-10-20T02:47:40;99908.08;;;3.82;70.71
36138;BME280;22194;50.046;21.954;2022-10-20T02:50:08;99908.96;;;3.82;70.59
36138;BME280;22194;50.046;21.954;2022-10-20T02:52:37;99913.55;;;3.82;70.51
36138;BME280;22194;50.046;21.954;2022-10-20T02:55:08;99917.98;;;3.80;70.73
36138;BME280;22194;50.046;21.954;2022-10-20T02:57:35;99915.53;;;3.80;70.67
36138;BME280;22194;50.046;21.954;2022-10-20T03:00:05;99921.85;;;3.80;70.72
36138;BME280;22194;50.046;21.954;2022-10-20T03:02:36;99929.71;;;3.81;70.73
36138;BME280;22194;50.046;21.954;2022-10-20T03:05:04;99931.30;;;3.80;70.63
36138;BME280;22194;50.046;21.954;2022-10-20T03:07:32;99933.27;;;3.79;70.63
36138;BME280;22194;50.046;21.954;2022-10-20T03:10:04;99936.13;;;3.78;70.57
36138;BME280;22194;50.046;21.954;2022-10-20T03:12:37;99936.33;;;3.77;70.85
36138;BME280;22194;50.046;21.954;2022-10-20T03:15:08;99937.08;;;3.75;70.57
36138;BME280;22194;50.046;21.954;2022-10-20T03:17:36;99936.08;;;3.72;70.63
36138;BME280;22194;50.046;21.954;2022-10-20T03:20:08;99936.68;;;3.70;70.61
36138;BME280;22194;50.046;21.954;2022-10-20T03:22:36;99935.48;;;3.70;70.60
36138;BME280;22194;50.046;21.954;2022-10-20T03:25:04;99939.73;;;3.68;70.58
36138;BME280;22194;50.046;21.954;2022-10-20T03:27:32;99943.64;;;3.67;70.80
36138;BME280;22194;50.046;21.954;2022-10-20T03:30:03;99946.98;;;3.66;70.96
36138;BME280;22194;50.046;21.954;2022-10-20T03:32:31;99950.90;;;3.65;70.67
36138;BME280;22194;50.046;21.954;2022-10-20T03:35:02;99950.42;;;3.63;70.75
36138;BME280;22194;50.046;21.954;2022-10-20T03:37:30;99950.81;;;3.62;70.75
36138;BME280;22194;50.046;21.954;2022-10-20T03:39:58;99952.25;;;3.60;70.71
36138;BME280;22194;50.046;21.954;2022-10-20T03:42:25;99954.73;;;3.59;70.74
36138;BME280;22194;50.046;21.954;2022-10-20T03:44:53;99950.42;;;3.56;70.68
36138;BME280;22194;50.046;21.954;2022-10-20T03:47:24;99954.98;;;3.56;70.86
36138;BME280;22194;50.046;21.954;2022-10-20T03:49:51;99950.42;;;3.57;70.85
36138;BME280;22194;50.046;21.954;2022-10-20T03:52:19;99949.20;;;3.56;70.91
36138;BME280;22194;50.046;21.954;2022-10-20T03:54:47;99950.98;;;3.56;70.90
36138;BME280;22194;50.046;21.954;2022-10-20T03:57:14;99951.28;;;3.57;70.99
36138;BME280;22194;50.046;21.954;2022-10-20T03:59:42;99953.70;;;3.59;70.90
36138;BME280;22194;50.046;21.954;2022-10-20T04:02:36;99952.26;;;3.60;71.07
36138;BME280;22194;50.046;21.954;2022-10-20T04:05:05;99947.09;;;3.63;71.15
36138;BME280;22194;50.046;21.954;2022-10-20T04:07:33;99947.33;;;3.66;71.31
36138;BME280;22194;50.046;21.954;2022-10-20T04:10:01;99950.73;;;3.70;71.38
36138;BME280;22194;50.046;21.954;2022-10-20T04:12:31;99948.02;;;3.73;71.25
36138;BME280;22194;50.046;21.954;2022-10-20T04:14:59;99955.98;;;3.76;71.45
36138;BME280;22194;50.046;21.954;2022-10-20T04:17:27;99955.22;;;3.78;71.36
36138;BME280;22194;50.046;21.954;2022-10-20T04:19:55;99957.23;;;3.81;71.23
36138;BME280;22194;50.046;21.954;2022-10-20T04:22:22;99956.77;;;3.85;71.31
36138;BME280;22194;50.046;21.954;2022-10-20T04:24:50;99954.77;;;3.87;71.24
36138;BME280;22194;50.046;21.954;2022-10-20T04:27:18;99956.60;;;3.91;71.24
36138;BME280;22194;50.046;21.954;2022-10-20T04:29:47;99954.25;;;3.93;71.38
36138;BME280;22194;50.046;21.954;2022-10-20T04:32:18;99954.71;;;3.95;71.47
36138;BME280;22194;50.046;21.954;2022-10-20T04:34:46;99956.20;;;3.98;71.50
36138;BME280;22194;50.046;21.954;2022-10-20T04:37:13;99957.48;;;4.02;71.45
36138;BME280;22194;50.046;21.954;2022-10-20T04:39:41;99952.46;;;4.06;71.53
36138;BME280;22194;50.046;21.954;2022-10-20T04:42:09;99955.13;;;4.10;71.40
36138;BME280;22194;50.046;21.954;2022-10-20T04:44:37;99951.89;;;4.12;71.25
36138;BME280;22194;50.046;21.954;2022-10-20T04:47:04;99953.28;;;4.13;71.48
36138;BME280;22194;50.046;21.954;2022-10-20T04:49:32;99955.70;;;4.14;71.30
36138;BME280;22194;50.046;21.954;2022-10-20T04:52:00;99953.77;;;4.14;71.30
36138;BME280;22194;50.046;21.954;2022-10-20T04:54:27;99954.28;;;4.14;71.30
36138;BME280;22194;50.046;21.954;2022-10-20T04:57:01;99955.35;;;4.14;71.30
36138;BME280;22194;50.046;21.954;2022-10-20T04:59:33;99958.46;;;4.15;71.47
36138;BME280;22194;50.046;21.954;2022-10-20T05:02:03;99961.20;;;4.18;71.49
36138;BME280;22194;50.046;21.954;2022-10-20T05:04:32;99962.06;;;4.18;71.41
36138;BME280;22194;50.046;21.954;2022-10-20T05:06:59;99966.86;;;4.16;71.61
36138;BME280;22194;50.046;21.954;2022-10-20T05:09:28;99966.90;;;4.15;71.41
36138;BME280;22194;50.046;21.954;2022-10-20T05:11:58;99976.05;;;4.14;71.40
36138;BME280;22194;50.046;21.954;2022-10-20T05:14:29;99980.41;;;4.15;71.62
36138;BME280;22194;50.046;21.954;2022-10-20T05:16:57;99984.77;;;4.16;71.57
36138;BME280;22194;50.046;21.954;2022-10-20T05:19:24;99990.66;;;4.19;71.61
36138;BME280;22194;50.046;21.954;2022-10-20T05:21:52;99994.60;;;4.22;71.54
36138;BME280;22194;50.046;21.954;2022-10-20T05:24:22;99996.13;;;4.24;71.37
36138;BME280;22194;50.046;21.954;2022-10-20T05:26:56;99998.48;;;4.27;71.54
36138;BME280;22194;50.046;21.954;2022-10-20T05:29:24;100001.79;;;4.28;71.58
36138;BME280;22194;50.046;21.954;2022-10-20T05:31:53;100002.62;;;4.29;71.53
36138;BME280;22194;50.046;21.954;2022-10-20T05:34:23;100007.13;;;4.31;71.63
36138;BME280;22194;50.046;21.954;2022-10-20T05:36:52;100011.06;;;4.35;71.57
36138;BME280;22194;50.046;21.954;2022-10-20T05:39:23;100014.79;;;4.39;71.64
36138;BME280;22194;50.046;21.954;2022-10-20T05:41:51;100011.37;;;4.41;71.54
36138;BME280;22194;50.046;21.954;2022-10-20T05:44:19;100017.31;;;4.42;71.70
36138;BME280;22194;50.046;21.954;2022-10-20T05:46:47;100020.15;;;4.41;71.52
36138;BME280;22194;50.046;21.954;2022-10-20T05:49:18;100022.61;;;4.41;71.54
36138;BME280;22194;50.046;21.954;2022-10-20T05:51:48;100030.23;;;4.39;71.56
36138;BME280;22194;50.046;21.954;2022-10-20T05:54:16;100038.94;;;4.36;71.70
36138;BME280;22194;50.046;21.954;2022-10-20T05:56:44;100042.90;;;4.33;71.55
36138;BME280;22194;50.046;21.954;2022-10-20T05:59:12;100046.96;;;4.32;71.67
36138;BME280;22194;50.046;21.954;2022-10-20T06:01:42;100048.90;;;4.32;71.73
36138;BME280;22194;50.046;21.954;2022-10-20T06:04:21;100053.12;;;4.26;71.62
36138;BME280;22194;50.046;21.954;2022-10-20T06:06:54;100059.25;;;4.21;71.57
36138;BME280;22194;50.046;21.954;2022-10-20T06:09:23;100062.43;;;4.20;71.67
36138;BME280;22194;50.046;21.954;2022-10-20T06:11:53;100062.63;;;4.20;71.88
36138;BME280;22194;50.046;21.954;2022-10-20T06:14:21;100067.00;;;4.20;71.52
36138;BME280;22194;50.046;21.954;2022-10-20T06:16:50;100070.27;;;4.16;71.72
36138;BME280;22194;50.046;21.954;2022-10-20T06:19:23;100074.48;;;4.16;71.89
36138;BME280;22194;50.046;21.954;2022-10-20T06:21:51;100082.20;;;4.16;71.69
36138;BME280;22194;50.046;21.954;2022-10-20T06:24:20;100084.23;;;4.13;71.85
36138;BME280;22194;50.046;21.954;2022-10-20T06:26:49;100085.86;;;4.11;71.90
36138;BME280;22194;50.046;21.954;2022-10-20T06:29:20;100090.16;;;4.08;71.97
36138;BME280;22194;50.046;21.954;2022-10-20T06:31:56;100088.11;;;4.07;71.88
36138;BME280;22194;50.046;21.954;2022-10-20T06:34:27;100093.09;;;4.04;71.95
36138;BME280;22194;50.046;21.954;2022-10-20T06:36:55;100090.34;;;4.02;71.95
36138;BME280;22194;50.046;21.954;2022-10-20T06:39:24;100094.72;;;4.03;72.10
36138;BME280;22194;50.046;21.954;2022-10-20T06:42:06;100095.34;;;3.99;71.92
36138;BME280;22194;50.046;21.954;2022-10-20T06:44:39;100095.60;;;3.96;71.95
36138;BME280;22194;50.046;21.954;2022-10-20T06:47:07;100097.02;;;3.96;72.21
36138;BME280;22194;50.046;21.954;2022-10-20T06:49:39;100099.50;;;3.95;72.06
36138;BME280;22194;50.046;21.954;2022-10-20T06:52:07;100100.20;;;3.95;72.23
36138;BME280;22194;50.046;21.954;2022-10-20T06:54:35;100101.58;;;3.96;72.10
36138;BME280;22194;50.046;21.954;2022-10-20T06:57:02;100101.52;;;3.98;72.24
36138;BME280;22194;50.046;21.954;2022-10-20T06:59:31;100107.39;;;4.01;72.03
36138;BME280;22194;50.046;21.954;2022-10-20T07:01:58;100106.08;;;4.05;72.17
36138;BME280;22194;50.046;21.954;2022-10-20T07:04:33;100107.86;;;4.09;72.08
36138;BME280;22194;50.046;21.954;2022-10-20T07:07:03;100110.23;;;4.12;72.18
36138;BME280;22194;50.046;21.954;2022-10-20T07:09:34;100113.34;;;4.14;71.99
36138;BME280;22194;50.046;21.954;2022-10-20T07:12:01;100115.85;;;4.18;72.28
36138;BME280;22194;50.046;21.954;2022-10-20T07:14:30;100121.38;;;4.22;72.23
36138;BME280;22194;50.046;21.954;2022-10-20T07:17:03;100121.46;;;4.25;71.97
36138;BME280;22194;50.046;21.954;2022-10-20T07:19:31;100122.13;;;4.26;72.33
36138;BME280;22194;50.046;21.954;2022-10-20T07:21:59;100125.81;;;4.32;72.05
36138;BME280;22194;50.046;21.954;2022-10-20T07:24:26;100128.90;;;4.35;72.06
36138;BME280;22194;50.046;21.954;2022-10-20T07:26:58;100130.73;;;4.38;72.18
36138;BME280;22194;50.046;21.954;2022-10-20T07:29:26;100131.39;;;4.40;71.99
36138;BME280;22194;50.046;21.954;2022-10-20T07:31:54;100134.99;;;4.42;72.11
36138;BME280;22194;50.046;21.954;2022-10-20T07:34:28;100134.55;;;4.45;72.15
36138;BME280;22194;50.046;21.954;2022-10-20T07:36:59;100133.95;;;4.47;71.96
36138;BME280;22194;50.046;21.954;2022-10-20T07:39:27;100129.47;;;4.51;72.29
36138;BME280;22194;50.046;21.954;2022-10-20T07:41:54;100132.08;;;4.57;72.25
36138;BME280;22194;50.046;21.954;2022-10-20T07:44:23;100126.98;;;4.63;72.23
36138;BME280;22194;50.046;21.954;2022-10-20T07:46:51;100125.58;;;4.63;72.15
36138;BME280;22194;50.046;21.954;2022-10-20T07:49:21;100126.42;;;4.64;72.25
36138;BME280;22194;50.046;21.954;2022-10-20T07:52:14;100129.50;;;4.67;72.19
36138;BME280;22194;50.046;21.954;2022-10-20T07:54:47;100131.61;;;4.67;72.22
36138;BME280;22194;50.046;21.954;2022-10-20T07:57:17;100132.73;;;4.70;72.19
36138;BME280;22194;50.046;21.954;2022-10-20T07:59:45;100128.56;;;4.74;72.32
36138;BME280;22194;50.046;21.954;2022-10-20T08:02:13;100124.67;;;4.81;72.26
36138;BME280;22194;50.046;21.954;2022-10-20T08:04:43;100125.06;;;4.85;72.35
36138;BME280;22194;50.046;21.954;2022-10-20T08:07:16;100129.70;;;4.88;72.28
36138;BME280;22194;50.046;21.954;2022-10-20T08:09:45;100131.83;;;4.93;72.20
36138;BME280;22194;50.046;21.954;2022-10-20T08:12:13;100129.90;;;4.93;72.10
36138;BME280;22194;50.046;21.954;2022-10-20T08:14:41;100130.29;;;4.91;72.16
36138;BME280;22194;50.046;21.954;2022-10-20T08:17:14;100135.92;;;4.91;72.09
36138;BME280;22194;50.046;21.954;2022-10-20T08:19:42;100133.45;;;4.92;72.07
36138;BME280;22194;50.046;21.954;2022-10-20T08:22:20;100133.53;;;4.95;72.19
36138;BME280;22194;50.046;21.954;2022-10-20T08:24:48;100132.58;;;4.97;72.17
36138;BME280;22194;50.046;21.954;2022-10-20T08:27:15;100127.81;;;4.98;72.13
36138;BME280;22194;50.046;21.954;2022-10-20T08:29:43;100132.63;;;5.01;72.28
36138;BME280;22194;50.046;21.954;2022-10-20T08:32:29;100137.89;;;5.07;72.31
36138;BME280;22194;50.046;21.954;2022-10-20T08:34:57;100137.02;;;5.12;72.35
36138;BME280;22194;50.046;21.954;2022-10-20T08:37:30;100138.33;;;5.15;72.30
36138;BME280;22194;50.046;21.954;2022-10-20T08:40:00;100137.91;;;5.17;72.22
36138;BME280;22194;50.046;21.954;2022-10-20T08:42:32;100140.27;;;5.20;72.20
36138;BME280;22194;50.046;21.954;2022-10-20T08:45:12;100140.31;;;5.25;72.21
36138;BME280;22194;50.046;21.954;2022-10-20T08:47:44;100144.56;;;5.29;72.37
36138;BME280;22194;50.046;21.954;2022-10-20T08:50:21;100144.55;;;5.34;72.37
36138;BME280;22194;50.046;21.954;2022-10-20T08:52:55;100141.90;;;5.40;72.45
36138;BME280;22194;50.046;21.954;2022-10-20T08:55:27;100145.38;;;5.41;72.18
36138;BME280;22194;50.046;21.954;2022-10-20T08:58:05;100144.92;;;5.45;72.17
36138;BME280;22194;50.046;21.954;2022-10-20T09:00:37;100142.85;;;5.48;72.25
36138;BME280;22194;50.046;21.954;2022-10-20T09:03:19;100143.84;;;5.50;72.14
36138;BME280;22194;50.046;21.954;2022-10-20T09:06:08;100144.38;;;5.55;72.23
36138;BME280;22194;50.046;21.954;2022-10-20T09:08:43;100144.45;;;5.58;72.08
36138;BME280;22194;50.046;21.954;2022-10-20T09:11:19;100143.30;;;5.61;72.12
36138;BME280;22194;50.046;21.954;2022-10-20T09:13:49;100145.35;;;5.68;72.19
36138;BME280;22194;50.046;21.954;2022-10-20T09:16:31;100145.41;;;5.76;72.09
36138;BME280;22194;50.046;21.954;2022-10-20T09:19:24;100142.22;;;5.82;72.21
36138;BME280;22194;50.046;21.954;2022-10-20T09:22:03;100143.77;;;5.92;72.31
36138;BME280;22194;50.046;21.954;2022-10-20T09:24:35;100146.16;;;6.05;72.32
36138;BME280;22194;50.046;21.954;2022-10-20T09:27:32;100140.91;;;6.19;72.21
36138;BME280;22194;50.046;21.954;2022-10-20T09:30:15;100141.55;;;6.35;72.31
36138;BME280;22194;50.046;21.954;2022-10-20T09:32:45;100144.07;;;6.52;72.18
36138;BME280;22194;50.046;21.954;2022-10-20T09:35:22;100143.07;;;6.64;72.25
36138;BME280;22194;50.046;21.954;2022-10-20T09:41:10;100139.52;;;6.87;72.15
36138;BME280;22194;50.046;21.954;2022-10-20T09:43:51;100140.18;;;7.06;72.11
36138;BME280;22194;50.046;21.954;2022-10-20T09:46:29;100141.95;;;7.19;71.89
36138;BME280;22194;50.046;21.954;2022-10-20T09:49:00;100142.89;;;7.18;72.03
36138;BME280;22194;50.046;21.954;2022-10-20T09:51:29;100144.44;;;7.31;72.01
36138;BME280;22194;50.046;21.954;2022-10-20T09:54:02;100145.84;;;7.44;71.86
36138;BME280;22194;50.046;21.954;2022-10-20T09:56:35;100144.87;;;7.58;72.03
36138;BME280;22194;50.046;21.954;2022-10-20T10:01:57;100138.14;;;7.83;71.75
36138;BME280;22194;50.046;21.954;2022-10-20T10:04:33;100137.21;;;7.89;71.83
36138;BME280;22194;50.046;21.954;2022-10-20T10:07:27;100137.08;;;7.96;71.56
36138;BME280;22194;50.046;21.954;2022-10-20T10:10:04;100134.77;;;8.12;71.83
36138;BME280;22194;50.046;21.954;2022-10-20T10:12:35;100130.70;;;8.39;71.98
36138;BME280;22194;50.046;21.954;2022-10-20T10:15:32;100133.17;;;8.59;71.76
36138;BME280;22194;50.046;21.954;2022-10-20T10:18:12;100133.84;;;8.67;71.59
36138;BME280;22194;50.046;21.954;2022-10-20T10:20:40;100133.91;;;8.70;71.25
36138;BME280;22194;50.046;21.954;2022-10-20T10:23:27;100130.61;;;8.65;71.22
36138;BME280;22194;50.046;21.954;2022-10-20T10:25:55;100125.81;;;8.61;71.18
36138;BME280;22194;50.046;21.954;2022-10-20T10:28:37;100122.15;;;8.60;71.16
36138;BME280;22194;50.046;21.954;2022-10-20T10:33:33;100119.16;;;8.53;71.05
36138;BME280;22194;50.046;21.954;2022-10-20T10:36:04;100114.17;;;8.64;71.22
36138;BME280;22194;50.046;21.954;2022-10-20T10:38:35;100112.89;;;8.91;71.67
36138;BME280;22194;50.046;21.954;2022-10-20T10:41:36;100107.78;;;9.19;71.61
36138;BME280;22194;50.046;21.954;2022-10-20T10:44:37;100102.66;;;9.51;71.46
36138;BME280;22194;50.046;21.954;2022-10-20T10:55:34;100091.83;;;10.28;70.54
36138;BME280;22194;50.046;21.954;2022-10-20T11:01:31;100080.77;;;10.33;70.48
36138;BME280;22194;50.046;21.954;2022-10-20T11:04:17;100080.68;;;10.35;70.38
36138;BME280;22194;50.046;21.954;2022-10-20T11:09:59;100079.14;;;10.34;70.37
36138;BME280;22194;50.046;21.954;2022-10-20T11:12:58;100074.63;;;10.55;70.57
36138;BME280;22194;50.046;21.954;2022-10-20T11:29:50;100060.84;;;10.51;69.72
36138;BME280;22194;50.046;21.954;2022-10-20T11:40:26;100039.82;;;10.29;69.33
36138;BME280;22194;50.046;21.954;2022-10-20T11:45:56;100034.05;;;10.22;69.27
36138;BME280;22194;50.046;21.954;2022-10-20T11:48:52;100030.69;;;10.21;69.20
36138;BME280;22194;50.046;21.954;2022-10-20T11:57:40;100019.13;;;10.58;69.01
36138;BME280;22194;50.046;21.954;2022-10-20T12:00:39;100016.77;;;10.71;68.98
36138;BME280;22194;50.046;21.954;2022-10-20T12:05:50;100014.17;;;10.79;68.63
36138;BME280;22194;50.046;21.954;2022-10-20T12:11:48;100011.08;;;10.71;68.33
36138;BME280;22194;50.046;21.954;2022-10-20T12:14:37;100010.25;;;10.61;68.05
36138;BME280;22194;50.046;21.954;2022-10-20T12:17:14;100010.14;;;10.66;68.21
36138;BME280;22194;50.046;21.954;2022-10-20T12:19:51;100008.79;;;10.71;68.20
36138;BME280;22194;50.046;21.954;2022-10-20T12:22:43;100006.91;;;10.69;67.77
36138;BME280;22194;50.046;21.954;2022-10-20T12:25:32;100010.46;;;10.67;67.95
36138;BME280;22194;50.046;21.954;2022-10-20T12:31:02;100007.16;;;10.62;67.23
36138;BME280;22194;50.046;21.954;2022-10-20T12:38:51;100003.55;;;10.51;66.58
36138;BME280;22194;50.046;21.954;2022-10-20T12:41:38;100000.14;;;10.42;66.92
36138;BME280;22194;50.046;21.954;2022-10-20T12:44:18;99994.63;;;10.43;66.91
36138;BME280;22194;50.046;21.954;2022-10-20T12:47:06;99992.05;;;10.47;67.03
36138;BME280;22194;50.046;21.954;2022-10-20T12:49:42;99986.70;;;10.60;67.15
36138;BME280;22194;50.046;21.954;2022-10-20T12:52:29;99985.56;;;10.74;67.01
36138;BME280;22194;50.046;21.954;2022-10-20T12:55:16;99987.09;;;10.81;66.88
36138;BME280;22194;50.046;21.954;2022-10-20T12:57:45;99984.18;;;10.76;66.60
36138;BME280;22194;50.046;21.954;2022-10-20T13:02:57;99979.04;;;10.70;66.23
36138;BME280;22194;50.046;21.954;2022-10-20T13:05:39;99978.58;;;10.72;66.56
36138;BME280;22194;50.046;21.954;2022-10-20T13:10:49;99984.04;;;10.94;66.40
36138;BME280;22194;50.046;21.954;2022-10-20T13:15:53;99980.80;;;11.06;66.19
36138;BME280;22194;50.046;21.954;2022-10-20T13:18:33;99983.27;;;11.01;65.89
36138;BME280;22194;50.046;21.954;2022-10-20T13:21:28;99976.12;;;10.98;65.75
36138;BME280;22194;50.046;21.954;2022-10-20T13:24:19;99975.77;;;11.04;65.96
36138;BME280;22194;50.046;21.954;2022-10-20T13:26:55;99978.33;;;11.03;65.76
36138;BME280;22194;50.046;21.954;2022-10-20T13:29:35;99979.11;;;10.93;65.45
36138;BME280;22194;50.046;21.954;2022-10-20T13:32:22;99976.17;;;10.92;65.61
36138;BME280;22194;50.046;21.954;2022-10-20T13:35:24;99972.30;;;10.94;65.29
36138;BME280;22194;50.046;21.954;2022-10-20T13:37:59;99969.83;;;10.97;65.49
36138;BME280;22194;50.046;21.954;2022-10-20T13:41:01;99973.23;;;11.05;65.33
36138;BME280;22194;50.046;21.954;2022-10-20T13:43:48;99972.88;;;11.12;65.23
36138;BME280;22194;50.046;21.954;2022-10-20T13:47:27;99969.40;;;11.16;65.17
36138;BME280;22194;50.046;21.954;2022-10-20T13:49:47;99967.21;;;11.20;64.93
36138;BME280;22194;50.046;21.954;2022-10-20T13:52:29;99967.98;;;11.22;64.83
36138;BME280;22194;50.046;21.954;2022-10-20T13:54:59;99961.42;;;11.10;64.65
36138;BME280;22194;50.046;21.954;2022-10-20T13:57:33;99962.08;;;11.05;64.55
36138;BME280;22194;50.046;21.954;2022-10-20T14:03:15;99960.93;;;11.06;64.51
36138;BME280;22194;50.046;21.954;2022-10-20T14:05:46;99961.84;;;11.09;64.53
36138;BME280;22194;50.046;21.954;2022-10-20T14:08:15;99957.31;;;11.07;64.43
36138;BME280;22194;50.046;21.954;2022-10-20T14:11:02;99960.52;;;11.01;64.23
36138;BME280;22194;50.046;21.954;2022-10-20T14:13:37;99965.27;;;10.99;64.26
36138;BME280;22194;50.046;21.954;2022-10-20T14:16:12;99960.40;;;10.97;64.19
36138;BME280;22194;50.046;21.954;2022-10-20T14:18:43;99966.16;;;10.93;64.05
36138;BME280;22194;50.046;21.954;2022-10-20T14:21:16;99966.04;;;10.89;64.06
36138;BME280;22194;50.046;21.954;2022-10-20T14:23:47;99964.40;;;10.87;63.96
36138;BME280;22194;50.046;21.954;2022-10-20T14:26:23;99961.83;;;10.79;63.75
36138;BME280;22194;50.046;21.954;2022-10-20T14:28:51;99958.88;;;10.75;63.83
36138;BME280;22194;50.046;21.954;2022-10-20T14:31:22;99954.92;;;10.67;63.68
36138;BME280;22194;50.046;21.954;2022-10-20T14:33:52;99955.49;;;10.63;63.64
36138;BME280;22194;50.046;21.954;2022-10-20T14:36:27;99954.95;;;10.57;63.64
36138;BME280;22194;50.046;21.954;2022-10-20T14:39:00;99954.41;;;10.48;63.43
36138;BME280;22194;50.046;21.954;2022-10-20T14:41:34;99954.34;;;10.43;63.48
36138;BME280;22194;50.046;21.954;2022-10-20T14:44:07;99950.92;;;10.44;63.56
36138;BME280;22194;50.046;21.954;2022-10-20T14:46:58;99955.65;;;10.48;63.46
36138;BME280;22194;50.046;21.954;2022-10-20T14:49:33;99956.01;;;10.51;63.37
36138;BME280;22194;50.046;21.954;2022-10-20T14:54:52;99953.04;;;10.54;63.29
36138;BME280;22194;50.046;21.954;2022-10-20T14:57:30;99950.23;;;10.53;63.19
36138;BME280;22194;50.046;21.954;2022-10-20T15:00:31;99949.67;;;10.50;63.12
36138;BME280;22194;50.046;21.954;2022-10-20T15:03:05;99946.95;;;10.45;63.03
36138;BME280;22194;50.046;21.954;2022-10-20T15:05:41;99946.09;;;10.41;62.93
36138;BME280;22194;50.046;21.954;2022-10-20T15:08:26;99943.24;;;10.35;62.79
36138;BME280;22194;50.046;21.954;2022-10-20T15:11:01;99943.73;;;10.26;62.77
36138;BME280;22194;50.046;21.954;2022-10-20T15:13:34;99934.52;;;10.17;62.61
36138;BME280;22194;50.046;21.954;2022-10-20T15:16:03;99934.40;;;10.07;62.62